Time;durP1;ratioP1;P1;durP2;ratioP2;P2;SDS_P1;SDS_P2;PMS_P1;PMS_P2;Temp;Humidity;BMP_temperature;BMP_pressure;BME280_temperature;BME280_humidity;BME280_pressure;Samples;Min_cycle;Max_cycle;Signal;HPM_P1;HPM_P2
2023/12/21 00:00:59;;;;;;;14.63;3.20;;;10.80;99.90;;;;;;5095878;28;20691;-71
2023/12/21 00:03:25;;;;;;;6.43;3.20;;;10.80;99.90;;;;;;5114104;28;20187;-71
2023/12/21 00:05:51;;;;;;;6.13;2.60;;;10.80;99.90;;;;;;5114446;28;20196;-71
2023/12/21 00:08:16;;;;;;;7.80;2.60;;;10.70;99.90;;;;;;5114254;28;20175;-71
2023/12/21 00:10:42;;;;;;;10.83;4.17;;;10.80;99.90;;;;;;5114178;28;20573;-71
2023/12/21 00:13:07;;;;;;;5.47;2.73;;;10.80;99.90;;;;;;5095340;28;20211;-72
2023/12/21 00:15:33;;;;;;;43.23;21.50;;;10.90;99.90;;;;;;5095879;28;20637;-71
2023/12/21 00:17:58;;;;;;;7.47;2.90;;;10.90;99.90;;;;;;5114170;28;20178;-71
2023/12/21 00:20:24;;;;;;;8.43;2.63;;;10.90;99.90;;;;;;5113780;28;20170;-71
2023/12/21 00:22:49;;;;;;;7.77;2.70;;;10.80;99.90;;;;;;5095153;28;20216;-71
2023/12/21 00:25:15;;;;;;;7.33;2.37;;;10.80;99.90;;;;;;5114001;28;20626;-72
2023/12/21 00:27:41;;;;;;;8.30;2.97;;;10.80;99.90;;;;;;5113576;28;20275;-71
2023/12/21 00:30:07;;;;;;;6.47;2.60;;;10.80;99.90;;;;;;5114095;28;20159;-72
2023/12/21 00:32:33;;;;;;;8.90;3.03;;;10.80;99.90;;;;;;5095617;28;20167;-72
2023/12/21 00:34:58;;;;;;;8.73;2.60;;;10.80;99.90;;;;;;5113977;28;20172;-72
2023/12/21 00:37:24;;;;;;;8.23;2.77;;;10.80;99.90;;;;;;5113849;28;20504;-72
2023/12/21 00:39:50;;;;;;;9.67;2.73;;;10.70;99.90;;;;;;5113808;28;20274;-72
2023/12/21 00:42:15;;;;;;;11.23;3.20;;;10.70;99.90;;;;;;5113543;28;20650;-72
2023/12/21 00:44:42;;;;;;;10.07;2.93;;;10.70;99.90;;;;;;5113800;28;20159;-72
2023/12/21 00:47:08;;;;;;;7.70;2.70;;;10.70;99.90;;;;;;5113626;28;20215;-72
2023/12/21 00:49:33;;;;;;;7.83;2.60;;;10.80;99.90;;;;;;5095561;28;20576;-72
2023/12/21 00:51:59;;;;;;;8.97;3.07;;;10.70;99.90;;;;;;5113921;28;20176;-71
2023/12/21 00:54:24;;;;;;;15.10;3.07;;;10.80;99.90;;;;;;5113614;28;20202;-72
2023/12/21 00:56:50;;;;;;;9.97;2.90;;;10.70;99.90;;;;;;5095114;28;20523;-72
2023/12/21 00:59:15;;;;;;;11.70;3.63;;;10.70;99.90;;;;;;5113495;28;20231;-71
2023/12/21 01:01:41;;;;;;;13.90;3.10;;;10.70;99.90;;;;;;5113453;28;20216;-71
2023/12/21 01:04:07;;;;;;;8.53;3.50;;;10.70;99.90;;;;;;5095245;28;20178;-70
2023/12/21 01:06:36;;;;;;;10.33;3.30;;;10.80;99.90;;;;;;5113505;28;20168;-72
2023/12/21 01:09:03;;;;;;;13.50;3.27;;;10.70;99.90;;;;;;5113619;28;20175;-72
2023/12/21 01:11:28;;;;;;;13.43;3.73;;;10.70;99.90;;;;;;5113083;28;20174;-71
2023/12/21 01:13:54;;;;;;;9.43;3.23;;;10.70;99.90;;;;;;5113288;28;20617;-72
2023/12/21 01:16:19;;;;;;;13.13;3.43;;;10.60;99.90;;;;;;5113483;28;20665;-72
2023/12/21 01:18:46;;;;;;;14.13;3.30;;;10.60;99.90;;;;;;5113354;28;20175;-71
2023/12/21 01:21:11;;;;;;;8.30;3.30;;;10.70;99.90;;;;;;5113265;28;20197;-72
2023/12/21 01:23:37;;;;;;;11.50;3.27;;;10.60;99.90;;;;;;5113427;28;20167;-71
2023/12/21 01:26:03;;;;;;;14.70;3.90;;;10.60;99.90;;;;;;5113051;28;20168;-72
2023/12/21 01:28:28;;;;;;;15.67;3.47;;;10.60;99.90;;;;;;5112994;28;20223;-71
2023/12/21 01:30:54;;;;;;;14.60;3.60;;;10.60;99.90;;;;;;5113258;28;20168;-72
2023/12/21 01:33:20;;;;;;;11.10;3.17;;;10.60;99.90;;;;;;5114807;28;20259;-71
2023/12/21 01:35:46;;;;;;;13.80;3.27;;;10.60;99.90;;;;;;5117357;28;20288;-72
2023/12/21 01:38:12;;;;;;;11.97;3.77;;;10.70;99.90;;;;;;5117334;28;20233;-71
2023/12/21 01:40:37;;;;;;;11.07;3.40;;;10.70;99.90;;;;;;5116697;28;20163;-72
2023/12/21 01:43:03;;;;;;;16.37;3.73;;;10.70;99.90;;;;;;5098807;28;20507;-72
2023/12/21 01:45:28;;;;;;;14.80;3.43;;;10.70;99.90;;;;;;5116990;28;20673;-72
2023/12/21 01:47:55;;;;;;;11.90;3.60;;;10.70;99.90;;;;;;5116913;28;20168;-71
2023/12/21 01:50:20;;;;;;;10.37;3.30;;;10.70;99.90;;;;;;5116862;28;20167;-71
2023/12/21 01:52:47;;;;;;;13.63;4.60;;;10.70;99.90;;;;;;5116916;28;20170;-71
2023/12/21 01:55:14;;;;;;;15.90;3.93;;;10.70;99.90;;;;;;5116593;28;20179;-72
2023/12/21 01:57:40;;;;;;;15.33;4.03;;;10.60;99.90;;;;;;5116696;28;20197;-72
2023/12/21 02:00:06;;;;;;;15.17;3.60;;;10.70;99.90;;;;;;5098404;28;20176;-72
2023/12/21 02:02:32;;;;;;;13.27;3.83;;;10.70;99.90;;;;;;5116707;28;20274;-71
2023/12/21 02:04:58;;;;;;;17.63;3.57;;;10.70;99.90;;;;;;5116805;28;20202;-71
2023/12/21 02:07:24;;;;;;;13.60;3.93;;;10.70;99.90;;;;;;5098297;28;20167;-71
2023/12/21 02:09:49;;;;;;;19.70;4.00;;;10.70;99.90;;;;;;5116091;28;20172;-71
2023/12/21 02:12:15;;;;;;;13.47;3.67;;;10.80;99.90;;;;;;5116459;28;20194;-71
2023/12/21 02:14:40;;;;;;;13.27;3.80;;;10.90;99.90;;;;;;5097824;28;20675;-72
2023/12/21 02:17:09;;;;;;;17.50;3.83;;;10.90;99.90;;;;;;5116407;28;20630;-72
2023/12/21 02:19:37;;;;;;;14.90;4.10;;;10.80;99.90;;;;;;5116272;28;20693;-71
2023/12/21 02:22:04;;;;;;;19.30;4.50;;;10.90;99.90;;;;;;5116298;28;20250;-72
2023/12/21 02:24:29;;;;;;;18.53;4.40;;;10.90;99.90;;;;;;5115854;28;20211;-71
2023/12/21 02:26:55;;;;;;;17.20;4.00;;;10.90;99.90;;;;;;5115883;28;20211;-72
2023/12/21 02:29:21;;;;;;;14.73;4.20;;;10.90;99.90;;;;;;5116084;28;20634;-72
2023/12/21 02:31:46;;;;;;;11.10;3.90;;;10.90;99.90;;;;;;5116121;28;20235;-72
2023/12/21 02:34:12;;;;;;;20.93;4.43;;;10.90;99.90;;;;;;5115805;28;20279;-72
2023/12/21 02:36:37;;;;;;;17.97;4.47;;;10.80;99.90;;;;;;5115985;28;20160;-71
2023/12/21 02:39:03;;;;;;;14.60;4.63;;;10.80;99.90;;;;;;5115622;28;20171;-71
2023/12/21 02:41:29;;;;;;;17.70;4.40;;;10.80;99.90;;;;;;5115867;28;20160;-71
2023/12/21 02:43:54;;;;;;;18.43;4.37;;;10.80;99.90;;;;;;5115590;28;20261;-72
2023/12/21 02:46:22;;;;;;;20.23;4.10;;;10.80;99.90;;;;;;5115220;28;20159;-72
2023/12/21 02:48:47;;;;;;;21.17;4.13;;;10.80;99.90;;;;;;5116002;28;20171;-71
2023/12/21 02:51:13;;;;;;;16.03;4.23;;;10.80;99.90;;;;;;5115834;28;20255;-72
2023/12/21 02:53:39;;;;;;;19.70;4.40;;;10.70;99.90;;;;;;5115278;28;20226;-72
2023/12/21 02:56:05;;;;;;;14.07;4.10;;;10.80;99.90;;;;;;5115831;28;20155;-71
2023/12/21 02:58:31;;;;;;;17.73;4.23;;;10.80;99.90;;;;;;5115449;28;20240;-71
2023/12/21 03:00:56;;;;;;;20.20;5.07;;;10.80;99.90;;;;;;5115492;28;20217;-72
2023/12/21 03:03:22;;;;;;;20.03;4.00;;;10.80;99.90;;;;;;5097182;28;20171;-71
2023/12/21 03:05:48;;;;;;;11.97;3.83;;;10.90;99.90;;;;;;5115829;28;20198;-72
2023/12/21 03:08:13;;;;;;;17.80;4.67;;;10.80;99.90;;;;;;5115078;28;20167;-72
2023/12/21 03:10:39;;;;;;;17.43;4.07;;;10.90;99.90;;;;;;5115233;28;20171;-72
2023/12/21 03:13:04;;;;;;;14.57;4.00;;;10.80;99.90;;;;;;5115231;28;20195;-72
2023/12/21 03:15:31;;;;;;;18.40;3.83;;;10.90;99.90;;;;;;5115353;28;20642;-72
2023/12/21 03:17:57;;;;;;;12.87;4.03;;;10.90;99.90;;;;;;5115369;28;20619;-70
2023/12/21 03:20:23;;;;;;;16.30;4.30;;;10.90;99.90;;;;;;5114977;28;20225;-71
2023/12/21 03:22:48;;;;;;;17.13;4.10;;;10.90;99.90;;;;;;5114995;28;20171;-71
2023/12/21 03:25:14;;;;;;;19.20;4.43;;;11.00;99.90;;;;;;5115074;28;20177;-71
2023/12/21 03:27:40;;;;;;;15.07;3.80;;;11.00;99.90;;;;;;5114616;28;20562;-71
2023/12/21 03:30:06;;;;;;;23.13;5.23;;;11.00;99.90;;;;;;5115011;28;20239;-71
2023/12/21 03:32:32;;;;;;;23.20;5.17;;;10.90;99.90;;;;;;5115075;28;20228;-71
2023/12/21 03:34:57;;;;;;;17.63;4.67;;;11.00;99.90;;;;;;5114423;28;20724;-71
2023/12/21 03:37:27;;;;;;;21.03;4.57;;;11.00;99.90;;;;;;5114914;28;20167;-71
2023/12/21 03:39:55;;;;;;;19.23;4.37;;;10.90;99.90;;;;;;5096440;28;20300;-71
2023/12/21 03:42:20;;;;;;;13.30;4.10;;;10.80;99.90;;;;;;5114672;28;20171;-71
2023/12/21 03:44:46;;;;;;;22.63;4.50;;;10.90;99.90;;;;;;5114812;28;20171;-71
2023/12/21 03:47:11;;;;;;;13.93;4.00;;;11.00;99.90;;;;;;5096370;28;20167;-72
2023/12/21 03:49:37;;;;;;;18.53;4.70;;;11.00;99.90;;;;;;5114312;28;20216;-71
2023/12/21 03:52:03;;;;;;;17.43;4.50;;;11.10;99.90;;;;;;5114401;28;20168;-71
2023/12/21 03:54:28;;;;;;;11.73;4.13;;;11.10;99.90;;;;;;5114236;28;20207;-71
2023/12/21 03:56:54;;;;;;;19.33;4.80;;;11.10;99.90;;;;;;5113525;28;20254;-71
2023/12/21 03:59:19;;;;;;;18.13;4.87;;;11.00;99.90;;;;;;5114448;28;20171;-71
2023/12/21 04:01:45;;;;;;;17.73;4.00;;;11.10;99.90;;;;;;5114353;28;20167;-70
2023/12/21 04:04:10;;;;;;;17.37;4.40;;;11.10;99.90;;;;;;5113927;28;20167;-72
2023/12/21 04:06:36;;;;;;;14.37;4.33;;;11.10;99.90;;;;;;5114368;28;20175;-72
2023/12/21 04:09:02;;;;;;;14.30;4.10;;;11.10;99.90;;;;;;5114301;28;20528;-72
2023/12/21 04:11:28;;;;;;;17.77;4.97;;;11.10;99.90;;;;;;5113937;28;20208;-72
2023/12/21 04:13:54;;;;;;;20.77;4.77;;;11.10;99.90;;;;;;5113738;28;20206;-72
2023/12/21 04:16:20;;;;;;;13.93;4.40;;;11.10;99.90;;;;;;5095887;28;20764;-71
2023/12/21 04:18:45;;;;;;;14.93;4.20;;;11.10;99.90;;;;;;5113114;28;20656;-71
2023/12/21 04:21:11;;;;;;;16.60;4.83;;;11.10;99.90;;;;;;5113555;28;20159;-72
2023/12/21 04:23:36;;;;;;;12.00;4.53;;;11.20;99.90;;;;;;5113781;28;20207;-71
2023/12/21 04:26:02;;;;;;;12.87;4.23;;;11.30;99.90;;;;;;5113674;28;20262;-71
2023/12/21 04:28:28;;;;;;;19.23;4.77;;;11.40;99.90;;;;;;5113781;28;20225;-71
2023/12/21 04:30:54;;;;;;;21.40;4.33;;;11.30;99.90;;;;;;5113638;28;20258;-71
2023/12/21 04:33:19;;;;;;;15.73;3.93;;;11.30;99.90;;;;;;5113337;28;20219;-71
2023/12/21 04:35:46;;;;;;;14.50;3.97;;;11.40;99.90;;;;;;5113446;28;20254;-71
2023/12/21 04:38:12;;;;;;;17.87;4.67;;;11.40;99.90;;;;;;5095174;28;20216;-72
2023/12/21 04:40:38;;;;;;;17.17;4.47;;;11.40;99.90;;;;;;5095299;28;20195;-72
2023/12/21 04:43:05;;;;;;;19.93;4.40;;;11.40;99.90;;;;;;5113556;28;20205;-72
2023/12/21 04:45:31;;;;;;;16.60;3.40;;;11.40;99.90;;;;;;5113541;28;20203;-72
2023/12/21 04:47:56;;;;;;;12.37;4.00;;;11.40;99.90;;;;;;5113146;28;20660;-72
2023/12/21 04:50:22;;;;;;;15.63;4.03;;;11.40;99.90;;;;;;5113236;28;20174;-71
2023/12/21 04:52:48;;;;;;;16.80;4.63;;;11.40;99.90;;;;;;5112796;28;20186;-72
2023/12/21 04:55:14;;;;;;;13.30;3.70;;;11.40;99.90;;;;;;5094675;28;20276;-71
2023/12/21 04:57:40;;;;;;;11.93;3.87;;;11.40;99.90;;;;;;5113154;28;20177;-71
2023/12/21 05:00:09;;;;;;;12.10;3.80;;;11.40;99.90;;;;;;5113447;28;20179;-72
2023/12/21 05:02:35;;;;;;;13.47;4.03;;;11.40;99.90;;;;;;5112908;28;20171;-72
2023/12/21 05:05:00;;;;;;;17.07;4.20;;;11.40;99.90;;;;;;5113358;28;20246;-72
2023/12/21 05:07:26;;;;;;;16.63;3.73;;;11.40;99.90;;;;;;5113880;28;20175;-72
2023/12/21 05:09:53;;;;;;;15.67;4.43;;;11.40;99.90;;;;;;5116916;28;20195;-70
2023/12/21 05:12:19;;;;;;;16.27;4.10;;;11.40;99.90;;;;;;5117179;28;20205;-71
2023/12/21 05:14:44;;;;;;;21.47;4.23;;;11.40;99.90;;;;;;5117131;28;20244;-72
2023/12/21 05:17:10;;;;;;;15.17;4.50;;;11.40;99.90;;;;;;5116787;28;20167;-70
2023/12/21 05:19:35;;;;;;;19.27;3.83;;;11.40;99.90;;;;;;5116974;28;20672;-72
2023/12/21 05:22:01;;;;;;;11.87;3.63;;;11.50;99.90;;;;;;5098079;28;20236;-71
2023/12/21 05:24:26;;;;;;;18.50;3.80;;;11.40;99.90;;;;;;5116989;28;20207;-72
2023/12/21 05:26:52;;;;;;;16.27;4.17;;;11.40;99.90;;;;;;5117133;28;20701;-71
2023/12/21 05:29:17;;;;;;;14.97;3.60;;;11.40;99.90;;;;;;5117175;28;20183;-71
2023/12/21 05:31:43;;;;;;;16.07;4.03;;;11.40;99.90;;;;;;5116680;28;20175;-71
2023/12/21 05:34:09;;;;;;;13.83;3.63;;;11.50;99.90;;;;;;5115781;28;20214;-71
2023/12/21 05:36:34;;;;;;;10.87;3.83;;;11.50;99.90;;;;;;5116099;28;20656;-71
2023/12/21 05:39:00;;;;;;;17.13;4.27;;;11.50;99.90;;;;;;5116606;28;20173;-71
2023/12/21 05:41:26;;;;;;;17.13;3.73;;;11.50;99.90;;;;;;5116481;28;20172;-72
2023/12/21 05:43:52;;;;;;;14.50;3.53;;;11.60;99.90;;;;;;5116205;28;20178;-71
2023/12/21 05:46:17;;;;;;;18.17;3.73;;;11.60;99.90;;;;;;5115829;28;20193;-72
2023/12/21 05:48:43;;;;;;;17.00;4.20;;;11.60;99.90;;;;;;5116179;28;20253;-72
2023/12/21 05:51:08;;;;;;;13.67;3.60;;;11.60;99.90;;;;;;5116335;28;20178;-72
2023/12/21 05:53:34;;;;;;;14.20;3.77;;;11.50;99.90;;;;;;5115842;28;20669;-72
2023/12/21 05:56:00;;;;;;;15.33;3.70;;;11.60;99.90;;;;;;5116467;28;20609;-71
2023/12/21 05:58:25;;;;;;;16.27;3.20;;;11.60;99.90;;;;;;5115451;28;20683;-71
2023/12/21 06:00:51;;;;;;;13.17;3.37;;;11.50;99.90;;;;;;5114972;28;20167;-71
2023/12/21 06:03:17;;;;;;;13.10;3.10;;;11.50;99.90;;;;;;5115912;28;20528;-72
2023/12/21 06:05:42;;;;;;;10.20;3.37;;;11.50;99.90;;;;;;5115864;28;20167;-71
2023/12/21 06:08:08;;;;;;;17.67;4.07;;;11.50;99.90;;;;;;5115567;28;20549;-73
2023/12/21 06:10:34;;;;;;;14.40;3.93;;;11.60;99.90;;;;;;5097483;28;20224;-72
2023/12/21 06:12:59;;;;;;;10.27;3.27;;;11.60;99.90;;;;;;5115214;28;20187;-72
2023/12/21 06:15:25;;;;;;;14.87;3.57;;;11.60;99.90;;;;;;5115587;28;20503;-72
2023/12/21 06:17:51;;;;;;;9.00;3.10;;;11.60;99.90;;;;;;5115821;28;20207;-70
2023/12/21 06:20:17;;;;;;;11.27;2.97;;;11.60;99.90;;;;;;5114030;28;20673;-72
2023/12/21 06:22:43;;;;;;;12.83;3.90;;;11.70;99.90;;;;;;5114741;28;20246;-72
2023/12/21 06:25:08;;;;;;;11.47;3.50;;;11.70;99.90;;;;;;5114909;28;20278;-72
2023/12/21 06:27:34;;;;;;;6.93;2.80;;;11.70;99.90;;;;;;5115680;28;20219;-73
2023/12/21 06:29:59;;;;;;;15.43;3.10;;;11.70;99.90;;;;;;5115275;28;20716;-71
2023/12/21 06:32:25;;;;;;;12.33;2.77;;;11.70;99.90;;;;;;5114374;28;20167;-72
2023/12/21 06:34:51;;;;;;;12.73;3.27;;;11.70;99.90;;;;;;5096695;28;20561;-72
2023/12/21 06:37:17;;;;;;;11.83;2.90;;;11.70;99.90;;;;;;5114422;28;20224;-71
2023/12/21 06:39:42;;;;;;;6.57;2.10;;;11.70;99.90;;;;;;5114973;28;20171;-72
2023/12/21 06:42:08;;;;;;;10.43;2.83;;;11.70;99.90;;;;;;5114895;28;20171;-72
2023/12/21 06:44:34;;;;;;;11.37;3.40;;;11.70;99.90;;;;;;5114635;28;20167;-72
2023/12/21 06:46:59;;;;;;;8.47;2.70;;;11.70;99.90;;;;;;5114697;28;20170;-72
2023/12/21 06:49:25;;;;;;;10.90;3.20;;;11.60;99.90;;;;;;5115150;28;20167;-72
2023/12/21 06:51:50;;;;;;;11.53;3.20;;;11.70;99.90;;;;;;5114145;28;20223;-73
2023/12/21 06:54:17;;;;;;;10.07;2.73;;;11.70;99.90;;;;;;5113821;28;20765;-71
2023/12/21 06:56:43;;;;;;;9.47;3.07;;;11.70;99.90;;;;;;5096158;28;20171;-73
2023/12/21 06:59:08;;;;;;;10.97;2.53;;;11.70;99.90;;;;;;5114257;28;20171;-72
2023/12/21 07:01:34;;;;;;;12.03;2.60;;;11.70;99.90;;;;;;5114021;28;20175;-73
2023/12/21 07:04:00;;;;;;;12.07;2.73;;;11.70;99.90;;;;;;5114324;28;20637;-73
2023/12/21 07:06:26;;;;;;;9.50;3.00;;;11.70;99.90;;;;;;5113902;28;20319;-73
2023/12/21 07:08:51;;;;;;;7.30;2.60;;;11.80;99.90;;;;;;5114416;28;20527;-73
2023/12/21 07:11:17;;;;;;;8.93;2.60;;;11.80;99.90;;;;;;5113623;28;20244;-73
2023/12/21 07:13:44;;;;;;;12.70;3.27;;;11.80;99.90;;;;;;5112908;28;20360;-73
2023/12/21 07:16:11;;;;;;;8.47;2.60;;;11.80;99.90;;;;;;5114478;28;20193;-73
2023/12/21 07:18:36;;;;;;;9.83;2.73;;;11.80;99.90;;;;;;5113879;28;20634;-73
2023/12/21 07:21:03;;;;;;;8.53;2.50;;;11.90;99.90;;;;;;5113276;28;20280;-72
2023/12/21 07:23:29;;;;;;;7.80;2.20;;;11.90;99.90;;;;;;5113925;28;20258;-74
2023/12/21 07:25:55;;;;;;;8.00;2.53;;;11.80;99.90;;;;;;5113938;28;20217;-73
2023/12/21 07:28:21;;;;;;;9.60;2.70;;;11.90;99.90;;;;;;5112822;28;20226;-73
2023/12/21 07:30:46;;;;;;;10.07;2.50;;;11.80;99.90;;;;;;5113634;28;20171;-73
2023/12/21 07:33:12;;;;;;;6.40;2.40;;;11.80;99.90;;;;;;5113355;28;20310;-73
2023/12/21 07:35:38;;;;;;;7.17;2.53;;;11.90;99.90;;;;;;5112917;28;20171;-73
2023/12/21 07:38:06;;;;;;;11.47;2.60;;;11.80;99.90;;;;;;5112744;28;20210;-74
2023/12/21 07:40:32;;;;;;;8.93;2.50;;;11.80;99.90;;;;;;5113957;28;20175;-71
2023/12/21 07:42:57;;;;;;;8.47;2.70;;;11.80;99.90;;;;;;5112265;28;20246;-72
2023/12/21 07:45:23;;;;;;;11.50;3.03;;;11.80;99.90;;;;;;5112689;28;20581;-72
2023/12/21 07:47:48;;;;;;;8.07;2.70;;;11.90;99.90;;;;;;5113727;28;20277;-73
2023/12/21 07:50:14;;;;;;;5.93;2.53;;;11.90;99.90;;;;;;5112388;28;20181;-73
2023/12/21 07:52:40;;;;;;;10.10;2.43;;;11.90;99.90;;;;;;5113191;28;20202;-74
2023/12/21 07:55:07;;;;;;;8.83;2.67;;;11.90;99.90;;;;;;5113301;28;20217;-73
2023/12/21 07:57:33;;;;;;;9.53;2.40;;;11.90;99.90;;;;;;5113167;28;20224;-74
2023/12/21 07:59:59;;;;;;;5.83;2.03;;;11.90;99.90;;;;;;5112873;28;20175;-73
2023/12/21 08:02:24;;;;;;;7.70;2.10;;;11.90;99.90;;;;;;5112950;28;20463;-72
2023/12/21 08:04:50;;;;;;;8.27;2.67;;;11.90;99.90;;;;;;5113013;28;20324;-72
2023/12/21 08:07:16;;;;;;;7.57;2.27;;;11.80;99.90;;;;;;5113182;28;20175;-72
2023/12/21 08:09:42;;;;;;;7.93;2.40;;;11.80;99.90;;;;;;5113332;28;20182;-72
2023/12/21 08:12:08;;;;;;;11.93;2.57;;;11.70;99.90;;;;;;5112868;28;20164;-73
2023/12/21 08:14:37;;;;;;;8.80;2.27;;;11.60;99.90;;;;;;5112783;28;20214;-72
2023/12/21 08:17:07;;;;;;;5.50;2.13;;;11.60;99.90;;;;;;5112588;28;20169;-72
2023/12/21 08:19:33;;;;;;;5.07;2.40;;;11.70;99.90;;;;;;5112743;28;20174;-72
2023/12/21 08:21:58;;;;;;;9.00;2.37;;;11.60;99.90;;;;;;5112411;28;20171;-71
2023/12/21 08:24:24;;;;;;;8.83;2.30;;;11.60;99.90;;;;;;5112971;28;20197;-72
2023/12/21 08:26:49;;;;;;;5.73;2.20;;;11.70;99.90;;;;;;5112361;28;20314;-72
2023/12/21 08:29:15;;;;;;;3.83;2.10;;;11.60;99.90;;;;;;5113472;28;20224;-72
2023/12/21 08:31:40;;;;;;;5.13;1.80;;;11.70;99.90;;;;;;5112663;28;20181;-72
2023/12/21 08:34:06;;;;;;;5.90;2.10;;;11.60;99.90;;;;;;5093734;28;20619;-71
2023/12/21 08:36:31;;;;;;;7.37;2.43;;;11.70;99.90;;;;;;5111228;28;20175;-71
2023/12/21 08:38:57;;;;;;;4.57;2.20;;;11.80;99.90;;;;;;5112092;28;20176;-71
2023/12/21 08:41:24;;;;;;;4.63;2.10;;;11.80;99.90;;;;;;5111946;28;20167;-73
2023/12/21 08:43:50;;;;;;;4.10;2.43;;;11.80;99.90;;;;;;5112013;28;20190;-71
2023/12/21 08:46:17;;;;;;;6.83;2.20;;;11.90;99.90;;;;;;5112186;28;20630;-72
2023/12/21 08:48:42;;;;;;;6.90;2.40;;;11.90;99.90;;;;;;5112538;28;20175;-72
2023/12/21 08:51:08;;;;;;;6.00;1.93;;;12.00;99.90;;;;;;5094830;28;20304;-71
2023/12/21 08:53:34;;;;;;;4.80;2.00;;;11.90;99.90;;;;;;5112649;28;20273;-72
2023/12/21 08:55:59;;;;;;;4.70;2.00;;;11.80;99.90;;;;;;5111886;28;20167;-72
2023/12/21 08:58:25;;;;;;;9.70;2.07;;;11.90;99.90;;;;;;5094120;28;20170;-73
2023/12/21 09:00:51;;;;;;;7.33;1.83;;;11.90;99.90;;;;;;5112130;28;20163;-73
2023/12/21 09:03:17;;;;;;;5.33;2.03;;;12.00;99.90;;;;;;5111742;28;20179;-73
2023/12/21 09:05:42;;;;;;;7.10;1.63;;;12.00;99.90;;;;;;5113290;28;20163;-72
2023/12/21 09:08:08;;;;;;;3.37;1.80;;;12.00;99.90;;;;;;5112702;28;20638;-72
2023/12/21 09:10:33;;;;;;;7.97;2.00;;;12.00;99.90;;;;;;5112180;28;20197;-72
2023/12/21 09:12:59;;;;;;;5.50;1.73;;;12.10;99.90;;;;;;5112144;28;20199;-72
2023/12/21 09:15:26;;;;;;;4.03;1.80;;;12.10;99.90;;;;;;5112681;28;20228;-71
2023/12/21 09:17:53;;;;;;;7.50;1.70;;;12.20;99.90;;;;;;5094111;28;20560;-73
2023/12/21 09:20:18;;;;;;;8.23;1.73;;;12.20;99.90;;;;;;5093674;28;20258;-72
2023/12/21 09:22:45;;;;;;;3.03;1.50;;;12.30;99.90;;;;;;5112734;28;20332;-72
2023/12/21 09:25:11;;;;;;;4.77;1.90;;;12.30;99.90;;;;;;5111990;28;20171;-71
2023/12/21 09:27:36;;;;;;;5.57;1.67;;;12.30;99.90;;;;;;5112593;28;20226;-72
2023/12/21 09:30:05;;;;;;;4.47;1.70;;;12.40;99.90;;;;;;5094391;28;20204;-72
2023/12/21 09:32:31;;;;;;;3.47;1.80;;;12.40;99.90;;;;;;5112345;28;20168;-72
2023/12/21 09:34:56;;;;;;;4.60;1.50;;;12.40;99.90;;;;;;5111594;28;20696;-72
2023/12/21 09:37:22;;;;;;;5.17;1.67;;;12.50;99.90;;;;;;5112334;28;20164;-72
2023/12/21 09:39:49;;;;;;;7.17;1.80;;;12.60;99.90;;;;;;5112253;28;20187;-71
2023/12/21 09:42:15;;;;;;;3.80;1.60;;;12.50;99.90;;;;;;5112420;28;20228;-72
2023/12/21 09:44:44;;;;;;;4.30;1.43;;;12.60;99.90;;;;;;5112455;28;20183;-72
2023/12/21 09:47:13;;;;;;;5.40;1.47;;;12.60;99.90;;;;;;5112272;28;20630;-72
2023/12/21 09:49:40;;;;;;;3.23;1.40;;;12.50;99.90;;;;;;5093846;28;20571;-71
2023/12/21 09:52:08;;;;;;;3.47;1.87;;;12.60;99.90;;;;;;5093402;28;20681;-71
2023/12/21 09:54:39;;;;;;;4.50;1.67;;;12.70;99.90;;;;;;5113902;28;20202;-72
2023/12/21 09:57:06;;;;;;;4.40;1.50;;;12.70;99.90;;;;;;5115401;28;20168;-71
2023/12/21 09:59:34;;;;;;;4.57;1.37;;;12.70;99.90;;;;;;5116289;28;20185;-72
2023/12/21 10:02:00;;;;;;;2.00;1.40;;;12.60;99.90;;;;;;5115801;28;20634;-72
2023/12/21 10:04:26;;;;;;;4.37;1.60;;;12.70;99.90;;;;;;5115315;28;20230;-74
2023/12/21 10:06:52;;;;;;;3.23;1.67;;;12.80;99.90;;;;;;5115682;28;20239;-72
2023/12/21 10:09:18;;;;;;;2.93;1.60;;;12.80;99.90;;;;;;5116056;28;20198;-72
2023/12/21 10:11:46;;;;;;;3.37;1.73;;;12.80;99.90;;;;;;5115858;28;20167;-72
2023/12/21 10:14:16;;;;;;;4.30;2.00;;;12.90;99.90;;;;;;5115689;28;20207;-73
2023/12/21 10:16:41;;;;;;;3.57;1.87;;;12.90;99.90;;;;;;5115498;28;20194;-71
2023/12/21 10:19:11;;;;;;;3.47;1.50;;;13.00;99.90;;;;;;5097584;28;20638;-72
2023/12/21 10:21:40;;;;;;;2.87;1.30;;;13.10;99.90;;;;;;5115252;28;20630;-73
2023/12/21 10:24:06;;;;;;;4.47;1.60;;;13.00;99.90;;;;;;5115002;28;20572;-73
2023/12/21 10:26:32;;;;;;;3.63;1.57;;;13.00;99.90;;;;;;5114928;28;20175;-74
2023/12/21 10:28:58;;;;;;;3.27;1.07;;;12.90;99.90;;;;;;5114513;28;20316;-70
2023/12/21 10:31:26;;;;;;;5.77;1.40;;;12.90;99.90;;;;;;5115336;28;20178;-72
2023/12/21 10:33:52;;;;;;;2.17;1.23;;;12.90;99.90;;;;;;5113871;28;20654;-72
2023/12/21 10:36:18;;;;;;;2.87;1.40;;;12.90;99.90;;;;;;5114780;28;20183;-72
2023/12/21 10:38:44;;;;;;;5.57;2.03;;;13.00;99.90;;;;;;5115038;28;20522;-72
2023/12/21 10:41:10;;;;;;;2.90;1.40;;;13.10;99.90;;;;;;5114860;28;20210;-72
2023/12/21 10:43:36;;;;;;;2.63;1.50;;;13.00;99.90;;;;;;5115189;28;20202;-72
2023/12/21 10:46:03;;;;;;;4.40;1.50;;;13.10;99.90;;;;;;5115311;28;20203;-73
2023/12/21 10:48:32;;;;;;;4.73;1.40;;;13.00;99.90;;;;;;5097086;28;20281;-73
2023/12/21 10:50:58;;;;;;;3.90;1.20;;;13.00;99.90;;;;;;5114270;28;20194;-73
2023/12/21 10:53:27;;;;;;;2.23;1.07;;;13.00;99.90;;;;;;5115222;28;20238;-71
2023/12/21 10:55:54;;;;;;;4.17;1.33;;;13.00;99.90;;;;;;5114798;28;20193;-72
2023/12/21 10:58:22;;;;;;;2.73;1.33;;;13.10;99.90;;;;;;5114187;28;20175;-73
2023/12/21 11:00:49;;;;;;;3.90;1.67;;;13.10;99.90;;;;;;5114988;28;20645;-72
2023/12/21 11:03:17;;;;;;;6.83;1.53;;;13.10;99.90;;;;;;5095657;28;20175;-73
2023/12/21 11:05:44;;;;;;;1.90;1.30;;;13.20;99.90;;;;;;5114158;28;20175;-73
2023/12/21 11:08:10;;;;;;;5.63;1.63;;;13.10;99.90;;;;;;5114453;28;20159;-71
2023/12/21 11:10:37;;;;;;;4.10;1.57;;;13.10;99.90;;;;;;5114245;28;20179;-73
2023/12/21 11:13:03;;;;;;;3.40;1.53;;;13.10;99.90;;;;;;5095524;28;20226;-73
2023/12/21 11:15:29;;;;;;;3.60;1.70;;;13.20;99.90;;;;;;5113988;28;20202;-73
2023/12/21 11:18:04;;;;;;;3.47;1.23;;;13.10;99.90;;;;;;5095547;28;20495;-72
2023/12/21 11:20:36;;;;;;;2.97;1.20;;;13.20;99.90;;;;;;5113370;28;20171;-73
2023/12/21 11:23:07;;;;;;;4.60;1.10;;;13.20;99.90;;;;;;5114708;28;20254;-72
2023/12/21 11:25:33;;;;;;;3.13;1.40;;;13.30;99.90;;;;;;5114752;28;20307;-72
2023/12/21 11:28:02;;;;;;;3.67;1.70;;;13.40;99.90;;;;;;5113416;28;20611;-74
2023/12/21 11:30:29;;;;;;;2.23;1.20;;;13.30;99.90;;;;;;5113752;28;20175;-72
2023/12/21 11:33:04;;;;;;;3.97;1.30;;;13.40;99.90;;;;;;5113794;28;20179;-74
2023/12/21 11:35:31;;;;;;;4.37;1.30;;;13.40;99.90;;;;;;5113797;28;20661;-74
2023/12/21 11:37:59;;;;;;;1.50;1.00;;;13.30;99.90;;;;;;5095738;28;20174;-74
2023/12/21 11:40:26;;;;;;;3.17;1.20;;;13.20;99.90;;;;;;5114074;28;20536;-74
2023/12/21 11:42:56;;;;;;;2.57;1.53;;;13.20;99.90;;;;;;5113221;28;20168;-73
2023/12/21 11:45:26;;;;;;;3.90;1.50;;;13.20;99.90;;;;;;5113840;28;20186;-70
2023/12/21 11:47:56;;;;;;;2.83;1.30;;;13.00;99.90;;;;;;5113500;28;20179;-69
2023/12/21 11:50:26;;;;;;;2.33;1.37;;;12.80;99.90;;;;;;5113596;28;20171;-72
2023/12/21 11:53:03;;;;;;;1.90;0.90;;;12.70;99.90;;;;;;5113890;28;20168;-72
2023/12/21 11:55:29;;;;;;;1.37;0.90;;;12.50;99.90;;;;;;5113479;28;20602;-72
2023/12/21 11:58:07;;;;;;;4.87;1.33;;;12.40;99.90;;;;;;5113504;28;20178;-71
2023/12/21 12:00:33;;;;;;;10.60;1.60;;;12.40;99.90;;;;;;5113145;28;20592;-71
2023/12/21 12:03:00;;;;;;;3.73;1.40;;;12.30;99.90;;;;;;5112682;28;20180;-72
2023/12/21 12:05:28;;;;;;;4.03;2.10;;;12.30;99.90;;;;;;5112742;28;20175;-71
2023/12/21 12:07:54;;;;;;;1.77;1.13;;;12.30;99.90;;;;;;5113649;28;20195;-71
2023/12/21 12:10:22;;;;;;;4.87;3.80;;;12.30;99.90;;;;;;5112584;28;20171;-73
2023/12/21 12:12:48;;;;;;;2.47;1.10;;;12.30;99.90;;;;;;5113053;28;20277;-70
2023/12/21 12:15:14;;;;;;;2.90;1.37;;;12.40;99.90;;;;;;5113720;28;20218;-72
2023/12/21 12:17:43;;;;;;;5.83;1.60;;;12.40;99.90;;;;;;5112272;28;20186;-72
2023/12/21 12:20:09;;;;;;;6.07;2.33;;;12.40;99.90;;;;;;5111845;28;20634;-71
2023/12/21 12:22:36;;;;;;;7.03;1.60;;;12.40;99.90;;;;;;5112200;28;20159;-72
2023/12/21 12:25:05;;;;;;;5.47;1.80;;;12.40;99.90;;;;;;5094504;28;20174;-72
2023/12/21 12:27:32;;;;;;;4.50;1.50;;;12.40;99.90;;;;;;5112047;28;20226;-72
2023/12/21 12:29:57;;;;;;;1.37;1.20;;;12.40;99.90;;;;;;5112634;28;20167;-72
2023/12/21 12:32:23;;;;;;;4.17;1.57;;;12.50;99.90;;;;;;5112274;28;20178;-72
2023/12/21 12:34:49;;;;;;;5.47;1.63;;;12.60;99.90;;;;;;5094597;28;20210;-71